WetterOnline ( https://www.wetteronline.de )

Wetter aktuell Annaberg-Buchholz (in 600m)

Aktuelles Wetter: Marienberg (640m)

6-stündlich | Neueste Meldungen
Ortszeit Temperatur Wetter
Di, 28.05. 14:00 12.3° C leichter Regen
Di, 28.05. 8:00 10.8° C leichter Regen
Di, 28.05. 2:00 14.6° C leichter Regen
Mo, 27.05. 20:00 17.7° C bewölkt
Mo, 27.05. 14:00 15.8° C Sprühregen
Mo, 27.05. 8:00 16.6° C bedeckt
Mo, 27.05. 2:00 13.6° C wolkig
So, 26.05. 20:00 18.0° C wolkig
Ortszeit Temperatur Wetter
Di, 28.05. 15:00 13.9° C bedeckt
Di, 28.05. 14:50 13.9° C bedeckt
Di, 28.05. 14:40 14.1° C bedeckt
Di, 28.05. 14:30 13.0° C bewölkt
Di, 28.05. 14:20 13.0° C bewölkt
Di, 28.05. 14:10 12.9° C bewölkt
Di, 28.05. 14:00 12.3° C leichter Regen
Di, 28.05. 13:30 12.2° C leichter Regen
Di, 28.05. 13:00 11.7° C Sprühregen
Di, 28.05. 12:30 11.6° C leichter Regen
Di, 28.05. 12:00 11.3° C leichter Regen
Ortszeit Relative Feuchte Sichtweite
Di, 28.05. 14:00 89% 24 km
Di, 28.05. 8:00 94% 26 km
Di, 28.05. 2:00 76% 50 km
Mo, 27.05. 20:00 75% 45 km
Mo, 27.05. 14:00 83% 35 km
Mo, 27.05. 8:00 71% 60 km
Mo, 27.05. 2:00 83% 65 km
So, 26.05. 20:00 64% 65 km
Ortszeit Relative Feuchte Sichtweite
Di, 28.05. 15:00 77% >70 km
Di, 28.05. 14:50 77% -
Di, 28.05. 14:40 77% -
Di, 28.05. 14:30 81% 40 km
Di, 28.05. 14:20 81% -
Di, 28.05. 14:10 82% -
Di, 28.05. 14:00 89% 24 km
Di, 28.05. 13:30 89% 29 km
Di, 28.05. 13:00 91% 18 km
Di, 28.05. 12:30 92% 18 km
Di, 28.05. 12:00 95% 7 km
Ortszeit Niederschlagsmenge Niederschlagsart
Di, 28.05. 14:00 6 l/m2 in 6 Std. Regen
Di, 28.05. 8:00 13 l/m2 in 12 Std. Regen
Di, 28.05. 2:00 0.1 l/m2 in 6 Std. Regen
Mo, 27.05. 20:00 2 l/m2 in 12 Std. Regen
Mo, 27.05. 14:00 1 l/m2 in 6 Std. Regen
Mo, 27.05. 8:00 0.0 l/m2 in 12 Std. -
Mo, 27.05. 2:00 0.0 l/m2 in 6 Std. -
So, 26.05. 20:00 0.0 l/m2 in 12 Std. -
Ortszeit Niederschlagsmenge Niederschlagsart
Di, 28.05. 15:00 <0.05 l/m2 in 1 Std. Regen
Di, 28.05. 14:50 keine Meldung -
Di, 28.05. 14:40 keine Meldung -
Di, 28.05. 14:30 <0.05 l/m2 in 30 Min Schneeregen
Di, 28.05. 14:20 keine Meldung -
Di, 28.05. 14:10 keine Meldung -
Di, 28.05. 14:00 <0.05 l/m2 in 1 Std. Regen
Di, 28.05. 13:30 <0.05 l/m2 in 30 Min -
Di, 28.05. 13:00 0.1 l/m2 in 1 Std. Regen
Di, 28.05. 12:30 <0.05 l/m2 in 30 Min -
Di, 28.05. 12:00 0.8 l/m2 in 1 Std. Regen
Ortszeit Stärke Spitze Richtung
km/h Bft. km/h Grad Sektor
Di, 28.05. 14:00 7 2 29 240° SW
Di, 28.05. 8:00 11 2 32 310° NW
Di, 28.05. 2:00 9 2 20 210° SW
Mo, 27.05. 20:00 4 1 11 160° S
Mo, 27.05. 14:00 4 1 14 340° N
Mo, 27.05. 8:00 6 1 19 210° SW
Mo, 27.05. 2:00 7 2 26 150° SO
So, 26.05. 20:00 11 2 36 150° SO
Ortszeit Stärke Spitze Richtung
km/h Bft. km/h Grad Sektor
Di, 28.05. 15:00 9 2 19 250° W
Di, 28.05. 14:50 9 2 - 250° W
Di, 28.05. 14:40 11 2 - 250° W
Di, 28.05. 14:30 13 3 19 240° SW
Di, 28.05. 14:20 13 3 - 240° SW
Di, 28.05. 14:10 9 2 - 260° W
Di, 28.05. 14:00 7 2 18 240° SW
Di, 28.05. 13:30 7 2 14 250° W
Di, 28.05. 13:00 13 3 28 280° W
Di, 28.05. 12:30 14 3 29 290° W
Di, 28.05. 12:00 14 3 25 290° W
Ortszeit Untergrenze Bedeckung Gattung
total tief tief mittel hoch
Di, 28.05. 14:00 270 m 7/8 7/8 - - -
Di, 28.05. 8:00 120 m 8/8 8/8 - - -
Di, 28.05. 2:00 1800 m 7/8 7/8 - - -
Mo, 27.05. 20:00 3900 m 7/8 7/8 - - -
Mo, 27.05. 14:00 1380 m 8/8 8/8 - - -
Mo, 27.05. 8:00 3300 m 8/8 8/8 - - -
Mo, 27.05. 2:00 8100 m 8/8 0/8 - - -
So, 26.05. 20:00 2100 m 7/8 2/8 - - -
Ortszeit Bedeckungsgrad in Achtel und Wolkenuntergrenze
Di, 28.05. 15:00 2(510m) 3(750m) 8(2100m)
Di, 28.05. 14:50 2(510m) 3(750m) 8(2100m)
Di, 28.05. 14:40 8
Di, 28.05. 14:30 4(330m) 5(540m) 7(1800m)
Di, 28.05. 14:20 4(330m) 5(540m) 7(1800m)
Di, 28.05. 14:10 7
Di, 28.05. 14:00 4(270m) 7(450m) 7(1800m)
Di, 28.05. 13:30 2(240m) 7(1350m) 8(2100m)
Di, 28.05. 13:00 4(180m) 7(1050m) 8(1260m)
Di, 28.05. 12:30 3(210m) 7(1440m) 8(1800m)
Di, 28.05. 12:00 5(180m) 7(1080m) 8(1290m)
Ortszeit Luftdruck NN (hPa) Tendenz (hPa in 3 Std.)
Di, 28.05. 14:00 1018 + 0,4
Di, 28.05. 8:00 1017 + 1,2
Di, 28.05. 2:00 1015 - 0,6
Mo, 27.05. 20:00 1015 - 1,1
Mo, 27.05. 14:00 1018 - 0,5
Mo, 27.05. 8:00 1018 + 0,5
Mo, 27.05. 2:00 1019 - 0,1
So, 26.05. 20:00 1017 + 0,3
Ortszeit Luftdruck NN (hPa) Tendenz (hPa in 3 Std.)
Di, 28.05. 15:00 1018 - 0,2
Di, 28.05. 14:50 1018 keine Meldung
Di, 28.05. 14:40 1018 keine Meldung
Di, 28.05. 14:30 1018 + 0,3
Di, 28.05. 14:20 1018 keine Meldung
Di, 28.05. 14:10 1018 keine Meldung
Di, 28.05. 14:00 1018 + 0,4
Di, 28.05. 13:30 1019 + 0,8
Di, 28.05. 13:00 1019 + 1,1
Di, 28.05. 12:30 1019 + 1,1
Di, 28.05. 12:00 1019 + 0,9
Ortszeit Schneehöhe (cm)
Di, 28.05. 14:00 0
Di, 28.05. 8:00 0
Di, 28.05. 2:00 0
Mo, 27.05. 20:00 0
Mo, 27.05. 14:00 0
Mo, 27.05. 8:00 0
Mo, 27.05. 2:00 0
So, 26.05. 20:00 0
Ortszeit Schneehöhe (cm)
Di, 28.05. 15:00 0
Di, 28.05. 14:50 0
Di, 28.05. 14:40 -
Di, 28.05. 14:30 0
Di, 28.05. 14:20 0
Di, 28.05. 14:10 -
Di, 28.05. 14:00 0
Di, 28.05. 13:30 0
Di, 28.05. 13:00 0
Di, 28.05. 12:30 0
Di, 28.05. 12:00 0
Link zu dieser Seite / Seite empfehlen

Das Wetter in ...